sensor_id;sensor_type;location;lat;lon;timestamp;pressure;altitude;pressure_sealevel;temperature;humidity
18323;BME280;9287;49.456;11.064;2024-01-11T00:00:57;99223.50;;;-3.64;100.00
18323;BME280;9287;49.456;11.064;2024-01-11T00:03:25;99220.13;;;-3.59;100.00
18323;BME280;9287;49.456;11.064;2024-01-11T00:05:57;99223.03;;;-3.61;100.00
18323;BME280;9287;49.456;11.064;2024-01-11T00:08:32;99222.72;;;-3.53;100.00
18323;BME280;9287;49.456;11.064;2024-01-11T00:11:01;99233.63;;;-3.54;100.00
18323;BME280;9287;49.456;11.064;2024-01-11T00:13:31;99228.72;;;-3.57;100.00
18323;BME280;9287;49.456;11.064;2024-01-11T00:15:59;99231.63;;;-3.59;100.00
18323;BME280;9287;49.456;11.064;2024-01-11T00:18:28;99235.69;;;-3.68;100.00
18323;BME280;9287;49.456;11.064;2024-01-11T00:21:01;99231.28;;;-3.62;100.00
18323;BME280;9287;49.456;11.064;2024-01-11T00:23:32;99227.69;;;-3.68;100.00
18323;BME280;9287;49.456;11.064;2024-01-11T00:26:04;99241.34;;;-3.76;100.00
18323;BME280;9287;49.456;11.064;2024-01-11T00:28:34;99243.91;;;-3.81;100.00
18323;BME280;9287;49.456;11.064;2024-01-11T00:31:04;99236.38;;;-3.61;100.00
18323;BME280;9287;49.456;11.064;2024-01-11T00:33:35;99234.66;;;-3.67;100.00
18323;BME280;9287;49.456;11.064;2024-01-11T00:36:05;99237.41;;;-3.62;100.00
18323;BME280;9287;49.456;11.064;2024-01-11T00:38:36;99242.75;;;-3.62;100.00
18323;BME280;9287;49.456;11.064;2024-01-11T00:41:09;99242.38;;;-3.89;100.00
18323;BME280;9287;49.456;11.064;2024-01-11T00:43:38;99238.75;;;-3.94;100.00
18323;BME280;9287;49.456;11.064;2024-01-11T00:46:15;99233.25;;;-3.81;100.00
18323;BME280;9287;49.456;11.064;2024-01-11T00:48:43;99233.69;;;-3.84;100.00
18323;BME280;9287;49.456;11.064;2024-01-11T00:51:13;99244.81;;;-3.87;100.00
18323;BME280;9287;49.456;11.064;2024-01-11T00:53:43;99241.41;;;-3.94;100.00
18323;BME280;9287;49.456;11.064;2024-01-11T00:56:20;99249.69;;;-3.84;100.00
18323;BME280;9287;49.456;11.064;2024-01-11T00:58:48;99247.03;;;-3.84;100.00
18323;BME280;9287;49.456;11.064;2024-01-11T01:01:30;99252.78;;;-3.99;100.00
18323;BME280;9287;49.456;11.064;2024-01-11T01:04:01;99248.84;;;-3.96;100.00
18323;BME280;9287;49.456;11.064;2024-01-11T01:06:32;99256.38;;;-3.93;100.00
18323;BME280;9287;49.456;11.064;2024-01-11T01:09:02;99258.91;;;-3.98;100.00
18323;BME280;9287;49.456;11.064;2024-01-11T01:11:40;99251.78;;;-3.86;100.00
18323;BME280;9287;49.456;11.064;2024-01-11T01:14:09;99249.31;;;-3.99;100.00
18323;BME280;9287;49.456;11.064;2024-01-11T01:16:38;99248.88;;;-3.84;100.00
18323;BME280;9287;49.456;11.064;2024-01-11T01:19:06;99251.34;;;-3.83;100.00
18323;BME280;9287;49.456;11.064;2024-01-11T01:21:38;99245.56;;;-3.98;100.00
18323;BME280;9287;49.456;11.064;2024-01-11T01:24:06;99239.34;;;-3.80;100.00
18323;BME280;9287;49.456;11.064;2024-01-11T01:26:36;99248.53;;;-3.88;100.00
18323;BME280;9287;49.456;11.064;2024-01-11T01:29:06;99247.34;;;-3.92;100.00
18323;BME280;9287;49.456;11.064;2024-01-11T01:31:34;99244.91;;;-3.94;100.00
18323;BME280;9287;49.456;11.064;2024-01-11T01:34:10;99248.97;;;-3.91;100.00
18323;BME280;9287;49.456;11.064;2024-01-11T01:36:41;99257.81;;;-3.79;100.00
18323;BME280;9287;49.456;11.064;2024-01-11T01:39:09;99257.13;;;-3.86;100.00
18323;BME280;9287;49.456;11.064;2024-01-11T01:41:37;99262.91;;;-3.89;100.00
18323;BME280;9287;49.456;11.064;2024-01-11T01:44:07;99262.00;;;-3.83;100.00
18323;BME280;9287;49.456;11.064;2024-01-11T01:46:35;99263.91;;;-4.02;100.00
18323;BME280;9287;49.456;11.064;2024-01-11T01:49:05;99256.25;;;-3.98;100.00
18323;BME280;9287;49.456;11.064;2024-01-11T01:51:36;99247.69;;;-4.00;100.00
18323;BME280;9287;49.456;11.064;2024-01-11T01:54:08;99254.41;;;-3.98;100.00
18323;BME280;9287;49.456;11.064;2024-01-11T01:56:38;99256.84;;;-3.96;100.00
18323;BME280;9287;49.456;11.064;2024-01-11T01:59:08;99255.56;;;-3.94;100.00
18323;BME280;9287;49.456;11.064;2024-01-11T02:01:38;99252.47;;;-3.79;100.00
18323;BME280;9287;49.456;11.064;2024-01-11T02:04:07;99256.19;;;-3.80;100.00
18323;BME280;9287;49.456;11.064;2024-01-11T02:06:44;99258.28;;;-3.82;100.00
18323;BME280;9287;49.456;11.064;2024-01-11T02:09:18;99251.97;;;-3.99;100.00
18323;BME280;9287;49.456;11.064;2024-01-11T02:11:47;99255.50;;;-3.87;100.00
18323;BME280;9287;49.456;11.064;2024-01-11T02:14:16;99252.84;;;-3.75;100.00
18323;BME280;9287;49.456;11.064;2024-01-11T02:16:52;99257.31;;;-3.99;100.00
18323;BME280;9287;49.456;11.064;2024-01-11T02:19:21;99251.97;;;-3.99;100.00
18323;BME280;9287;49.456;11.064;2024-01-11T02:21:53;99247.94;;;-3.90;100.00
18323;BME280;9287;49.456;11.064;2024-01-11T02:24:26;99249.69;;;-3.84;100.00
18323;BME280;9287;49.456;11.064;2024-01-11T02:27:01;99249.69;;;-3.84;100.00
18323;BME280;9287;49.456;11.064;2024-01-11T02:29:31;99251.78;;;-3.86;100.00
18323;BME280;9287;49.456;11.064;2024-01-11T02:32:06;99248.59;;;-3.95;100.00
18323;BME280;9287;49.456;11.064;2024-01-11T02:34:42;99247.09;;;-4.02;100.00
18323;BME280;9287;49.456;11.064;2024-01-11T02:37:11;99247.53;;;-4.05;100.00
18323;BME280;9287;49.456;11.064;2024-01-11T02:39:47;99237.94;;;-4.25;100.00
18323;BME280;9287;49.456;11.064;2024-01-11T02:42:21;99245.91;;;-4.06;100.00
18323;BME280;9287;49.456;11.064;2024-01-11T02:44:51;99242.41;;;-4.18;100.00
18323;BME280;9287;49.456;11.064;2024-01-11T02:47:20;99242.41;;;-4.18;100.00
18323;BME280;9287;49.456;11.064;2024-01-11T02:49:51;99244.66;;;-4.34;100.00
18323;BME280;9287;49.456;11.064;2024-01-11T02:52:24;99248.81;;;-4.38;100.00
18323;BME280;9287;49.456;11.064;2024-01-11T02:54:55;99245.69;;;-4.35;100.00
18323;BME280;9287;49.456;11.064;2024-01-11T02:57:26;99235.59;;;-4.33;100.00
18323;BME280;9287;49.456;11.064;2024-01-11T03:00:04;99233.25;;;-4.41;100.00
18323;BME280;9287;49.456;11.064;2024-01-11T03:02:37;99240.81;;;-4.38;100.00
18323;BME280;9287;49.456;11.064;2024-01-11T03:05:06;99241.91;;;-4.45;100.00
18323;BME280;9287;49.456;11.064;2024-01-11T03:07:36;99240.38;;;-4.53;100.00
18323;BME280;9287;49.456;11.064;2024-01-11T03:10:10;99241.13;;;-4.64;100.00
18323;BME280;9287;49.456;11.064;2024-01-11T03:12:40;99233.44;;;-4.72;100.00
18323;BME280;9287;49.456;11.064;2024-01-11T03:15:10;99237.41;;;-4.81;100.00
18323;BME280;9287;49.456;11.064;2024-01-11T03:17:39;99237.28;;;-4.86;100.00
18323;BME280;9287;49.456;11.064;2024-01-11T03:20:08;99241.22;;;-4.89;100.00
18323;BME280;9287;49.456;11.064;2024-01-11T03:22:37;99239.66;;;-4.97;100.00
18323;BME280;9287;49.456;11.064;2024-01-11T03:25:13;99239.25;;;-5.00;100.00
18323;BME280;9287;49.456;11.064;2024-01-11T03:27:45;99238.44;;;-5.01;100.00
18323;BME280;9287;49.456;11.064;2024-01-11T03:30:14;99234.41;;;-5.03;100.00
18323;BME280;9287;49.456;11.064;2024-01-11T03:32:43;99237.41;;;-5.18;100.00
18323;BME280;9287;49.456;11.064;2024-01-11T03:35:12;99226.44;;;-5.28;100.00
18323;BME280;9287;49.456;11.064;2024-01-11T03:37:41;99221.19;;;-5.35;100.00
18323;BME280;9287;49.456;11.064;2024-01-11T03:40:13;99219.63;;;-5.42;100.00
18323;BME280;9287;49.456;11.064;2024-01-11T03:42:42;99225.69;;;-5.35;100.00
18323;BME280;9287;49.456;11.064;2024-01-11T03:45:18;99211.34;;;-5.34;100.00
18323;BME280;9287;49.456;11.064;2024-01-11T03:47:47;99213.41;;;-5.36;100.00
18323;BME280;9287;49.456;11.064;2024-01-11T03:50:16;99221.13;;;-5.28;100.00
18323;BME280;9287;49.456;11.064;2024-01-11T03:52:44;99211.50;;;-5.29;100.00
18323;BME280;9287;49.456;11.064;2024-01-11T03:55:14;99203.09;;;-5.26;100.00
18323;BME280;9287;49.456;11.064;2024-01-11T03:57:47;99206.34;;;-5.24;100.00
18323;BME280;9287;49.456;11.064;2024-01-11T04:00:17;99204.72;;;-5.25;100.00
18323;BME280;9287;49.456;11.064;2024-01-11T04:02:47;99210.91;;;-5.31;100.00
18323;BME280;9287;49.456;11.064;2024-01-11T04:05:16;99217.03;;;-5.31;100.00
18323;BME280;9287;49.456;11.064;2024-01-11T04:07:44;99217.56;;;-5.40;100.00
18323;BME280;9287;49.456;11.064;2024-01-11T04:10:17;99207.47;;;-5.56;100.00
18323;BME280;9287;49.456;11.064;2024-01-11T04:12:47;99211.59;;;-5.61;100.00
18323;BME280;9287;49.456;11.064;2024-01-11T04:15:16;99217.63;;;-5.72;100.00
18323;BME280;9287;49.456;11.064;2024-01-11T04:17:48;99220.31;;;-5.72;100.00
18323;BME280;9287;49.456;11.064;2024-01-11T04:20:19;99220.59;;;-5.62;100.00
18323;BME280;9287;49.456;11.064;2024-01-11T04:22:54;99216.09;;;-5.61;100.00
18323;BME280;9287;49.456;11.064;2024-01-11T04:25:23;99225.88;;;-5.55;100.00
18323;BME280;9287;49.456;11.064;2024-01-11T04:27:53;99225.81;;;-5.48;100.00
18323;BME280;9287;49.456;11.064;2024-01-11T04:30:24;99232.47;;;-5.57;100.00
18323;BME280;9287;49.456;11.064;2024-01-11T04:32:52;99232.88;;;-5.61;100.00
18323;BME280;9287;49.456;11.064;2024-01-11T04:35:23;99228.41;;;-5.67;100.00
18323;BME280;9287;49.456;11.064;2024-01-11T04:37:53;99234.94;;;-5.63;100.00
18323;BME280;9287;49.456;11.064;2024-01-11T04:40:22;99231.25;;;-5.62;100.00
18323;BME280;9287;49.456;11.064;2024-01-11T04:42:52;99239.13;;;-5.73;100.00
18323;BME280;9287;49.456;11.064;2024-01-11T04:45:22;99244.25;;;-5.72;100.00
18323;BME280;9287;49.456;11.064;2024-01-11T04:47:50;99252.69;;;-5.81;100.00
18323;BME280;9287;49.456;11.064;2024-01-11T04:50:19;99250.84;;;-5.81;100.00
18323;BME280;9287;49.456;11.064;2024-01-11T04:52:48;99251.88;;;-5.82;100.00
18323;BME280;9287;49.456;11.064;2024-01-11T04:55:16;99248.16;;;-5.74;100.00
18323;BME280;9287;49.456;11.064;2024-01-11T04:57:47;99260.34;;;-5.67;100.00
18323;BME280;9287;49.456;11.064;2024-01-11T05:00:17;99245.56;;;-5.56;100.00
18323;BME280;9287;49.456;11.064;2024-01-11T05:02:45;99247.81;;;-5.59;100.00
18323;BME280;9287;49.456;11.064;2024-01-11T05:05:13;99246.78;;;-5.58;100.00
18323;BME280;9287;49.456;11.064;2024-01-11T05:07:41;99264.13;;;-5.74;100.00
18323;BME280;9287;49.456;11.064;2024-01-11T05:10:13;99266.03;;;-5.88;100.00
18323;BME280;9287;49.456;11.064;2024-01-11T05:12:41;99258.97;;;-5.94;100.00
18323;BME280;9287;49.456;11.064;2024-01-11T05:15:11;99250.56;;;-5.91;100.00
18323;BME280;9287;49.456;11.064;2024-01-11T05:17:40;99241.88;;;-5.86;100.00
18323;BME280;9287;49.456;11.064;2024-01-11T05:20:10;99251.59;;;-5.92;100.00
18323;BME280;9287;49.456;11.064;2024-01-11T05:22:38;99249.13;;;-5.93;100.00
18323;BME280;9287;49.456;11.064;2024-01-11T05:25:07;99243.84;;;-6.00;100.00
18323;BME280;9287;49.456;11.064;2024-01-11T05:27:36;99248.38;;;-5.76;100.00
18323;BME280;9287;49.456;11.064;2024-01-11T05:30:07;99239.22;;;-5.86;100.00
18323;BME280;9287;49.456;11.064;2024-01-11T05:32:39;99250.84;;;-5.81;100.00
18323;BME280;9287;49.456;11.064;2024-01-11T05:35:09;99253.31;;;-5.86;100.00
18323;BME280;9287;49.456;11.064;2024-01-11T05:37:38;99249.84;;;-5.86;100.00
18323;BME280;9287;49.456;11.064;2024-01-11T05:40:08;99253.22;;;-5.91;100.00
18323;BME280;9287;49.456;11.064;2024-01-11T05:42:36;99247.88;;;-5.91;100.00
18323;BME280;9287;49.456;11.064;2024-01-11T05:45:06;99244.63;;;-5.93;100.00
18323;BME280;9287;49.456;11.064;2024-01-11T05:47:35;99253.63;;;-5.94;100.00
18323;BME280;9287;49.456;11.064;2024-01-11T05:50:08;99255.28;;;-5.93;100.00
18323;BME280;9287;49.456;11.064;2024-01-11T05:52:38;99259.97;;;-5.95;100.00
18323;BME280;9287;49.456;11.064;2024-01-11T05:55:07;99254.66;;;-5.95;100.00
18323;BME280;9287;49.456;11.064;2024-01-11T05:57:35;99252.44;;;-5.98;100.00
18323;BME280;9287;49.456;11.064;2024-01-11T06:00:04;99252.00;;;-5.95;100.00
18323;BME280;9287;49.456;11.064;2024-01-11T06:02:33;99254.47;;;-6.00;100.00
18323;BME280;9287;49.456;11.064;2024-01-11T06:05:00;99249.94;;;-5.93;100.00
18323;BME280;9287;49.456;11.064;2024-01-11T06:07:31;99256.91;;;-5.92;100.00
18323;BME280;9287;49.456;11.064;2024-01-11T06:09:59;99257.25;;;-5.88;100.00
18323;BME280;9287;49.456;11.064;2024-01-11T06:12:29;99260.63;;;-6.00;100.00
18323;BME280;9287;49.456;11.064;2024-01-11T06:14:58;99264.28;;;-5.94;100.00
18323;BME280;9287;49.456;11.064;2024-01-11T06:17:26;99265.91;;;-5.93;100.00
18323;BME280;9287;49.456;11.064;2024-01-11T06:19:55;99264.28;;;-5.94;100.00
18323;BME280;9287;49.456;11.064;2024-01-11T06:22:23;99270.88;;;-6.03;100.00
18323;BME280;9287;49.456;11.064;2024-01-11T06:24:53;99270.03;;;-5.97;100.00
18323;BME280;9287;49.456;11.064;2024-01-11T06:27:21;99266.34;;;-5.96;100.00
18323;BME280;9287;49.456;11.064;2024-01-11T06:29:49;99264.31;;;-6.01;100.00
18323;BME280;9287;49.456;11.064;2024-01-11T06:32:17;99272.50;;;-6.02;100.00
18323;BME280;9287;49.456;11.064;2024-01-11T06:34:46;99283.56;;;-6.05;100.00
18323;BME280;9287;49.456;11.064;2024-01-11T06:37:15;99285.63;;;-6.07;100.00
18323;BME280;9287;49.456;11.064;2024-01-11T06:39:43;99290.09;;;-6.01;100.00
18323;BME280;9287;49.456;11.064;2024-01-11T06:42:13;99285.59;;;-6.01;100.00
18323;BME280;9287;49.456;11.064;2024-01-11T06:44:41;99305.28;;;-6.08;100.00
18323;BME280;9287;49.456;11.064;2024-01-11T06:47:09;99319.84;;;-6.17;100.00
18323;BME280;9287;49.456;11.064;2024-01-11T06:49:38;99312.47;;;-6.15;100.00
18323;BME280;9287;49.456;11.064;2024-01-11T06:52:06;99315.13;;;-6.15;100.00
18323;BME280;9287;49.456;11.064;2024-01-11T06:54:34;99311.84;;;-6.17;100.00
18323;BME280;9287;49.456;11.064;2024-01-11T06:57:02;99332.28;;;-6.11;100.00
18323;BME280;9287;49.456;11.064;2024-01-11T06:59:31;99323.91;;;-6.08;100.00
18323;BME280;9287;49.456;11.064;2024-01-11T07:02:01;99330.25;;;-6.09;100.00
18323;BME280;9287;49.456;11.064;2024-01-11T07:04:29;99325.81;;;-6.28;100.00
18323;BME280;9287;49.456;11.064;2024-01-11T07:07:00;99322.50;;;-6.17;100.00
18323;BME280;9287;49.456;11.064;2024-01-11T07:09:31;99323.09;;;-6.15;100.00
18323;BME280;9287;49.456;11.064;2024-01-11T07:11:59;99323.72;;;-6.13;100.00
18323;BME280;9287;49.456;11.064;2024-01-11T07:14:28;99320.03;;;-6.12;100.00
18323;BME280;9287;49.456;11.064;2024-01-11T07:16:58;99304.25;;;-6.07;100.00
18323;BME280;9287;49.456;11.064;2024-01-11T07:19:25;99315.13;;;-6.22;100.00
18323;BME280;9287;49.456;11.064;2024-01-11T07:21:54;99319.00;;;-6.18;100.00
18323;BME280;9287;49.456;11.064;2024-01-11T07:24:22;99328.91;;;-6.32;100.00
18323;BME280;9287;49.456;11.064;2024-01-11T07:26:49;99323.38;;;-6.30;100.00
18323;BME280;9287;49.456;11.064;2024-01-11T07:29:17;99327.19;;;-6.19;100.00
18323;BME280;9287;49.456;11.064;2024-01-11T07:31:45;99322.91;;;-6.20;100.00
18323;BME280;9287;49.456;11.064;2024-01-11T07:34:15;99327.63;;;-6.22;100.00
18323;BME280;9287;49.456;11.064;2024-01-11T07:36:44;99334.81;;;-6.29;100.00
18323;BME280;9287;49.456;11.064;2024-01-11T07:39:12;99352.41;;;-6.28;100.00
18323;BME280;9287;49.456;11.064;2024-01-11T07:41:40;99356.91;;;-6.36;100.00
18323;BME280;9287;49.456;11.064;2024-01-11T07:44:08;99351.19;;;-6.33;100.00
18323;BME280;9287;49.456;11.064;2024-01-11T07:46:36;99357.13;;;-6.30;100.00
18323;BME280;9287;49.456;11.064;2024-01-11T07:49:16;99362.97;;;-6.15;100.00
18323;BME280;9287;49.456;11.064;2024-01-11T07:51:44;99367.50;;;-6.22;100.00
18323;BME280;9287;49.456;11.064;2024-01-11T07:54:12;99367.69;;;-6.17;100.00
18323;BME280;9287;49.456;11.064;2024-01-11T07:56:40;99362.09;;;-5.96;100.00
18323;BME280;9287;49.456;11.064;2024-01-11T07:59:09;99366.16;;;-5.93;100.00
18323;BME280;9287;49.456;11.064;2024-01-11T08:01:40;99370.25;;;-5.91;100.00
18323;BME280;9287;49.456;11.064;2024-01-11T08:04:08;99367.28;;;-5.83;100.00
18323;BME280;9287;49.456;11.064;2024-01-11T08:06:38;99376.69;;;-5.74;100.00
18323;BME280;9287;49.456;11.064;2024-01-11T08:09:06;99375.78;;;-5.61;100.00
18323;BME280;9287;49.456;11.064;2024-01-11T08:11:37;99379.34;;;-5.42;100.00
18323;BME280;9287;49.456;11.064;2024-01-11T08:14:09;99380.56;;;-4.88;100.00
18323;BME280;9287;49.456;11.064;2024-01-11T08:16:37;99384.66;;;-3.76;100.00
18323;BME280;9287;49.456;11.064;2024-01-11T08:19:05;99394.44;;;-2.99;100.00
18323;BME280;9287;49.456;11.064;2024-01-11T08:21:33;99383.31;;;-2.72;100.00
18323;BME280;9287;49.456;11.064;2024-01-11T08:24:03;99373.50;;;-2.20;100.00
18323;BME280;9287;49.456;11.064;2024-01-11T08:26:31;99373.81;;;-1.93;100.00
18323;BME280;9287;49.456;11.064;2024-01-11T08:28:59;99384.16;;;-1.97;100.00
18323;BME280;9287;49.456;11.064;2024-01-11T08:31:27;99374.44;;;-1.46;100.00
18323;BME280;9287;49.456;11.064;2024-01-11T08:33:54;99365.84;;;-1.31;100.00
18323;BME280;9287;49.456;11.064;2024-01-11T08:36:23;99373.56;;;-1.18;94.54
18323;BME280;9287;49.456;11.064;2024-01-11T08:38:50;99363.28;;;-1.83;100.00
18323;BME280;9287;49.456;11.064;2024-01-11T08:41:20;99367.34;;;-2.21;100.00
18323;BME280;9287;49.456;11.064;2024-01-11T08:43:48;99358.97;;;-2.36;100.00
18323;BME280;9287;49.456;11.064;2024-01-11T08:46:23;99349.00;;;-2.75;100.00
18323;BME280;9287;49.456;11.064;2024-01-11T08:48:51;99346.94;;;-2.97;100.00
18323;BME280;9287;49.456;11.064;2024-01-11T08:51:19;99344.47;;;-2.52;100.00
18323;BME280;9287;49.456;11.064;2024-01-11T08:53:47;99329.81;;;-1.97;100.00
18323;BME280;9287;49.456;11.064;2024-01-11T08:56:15;99323.91;;;-1.54;100.00
18323;BME280;9287;49.456;11.064;2024-01-11T08:58:45;99337.19;;;-0.81;100.00
18323;BME280;9287;49.456;11.064;2024-01-11T09:01:14;99334.66;;;-0.10;88.81
18323;BME280;9287;49.456;11.064;2024-01-11T09:03:42;99326.13;;;0.20;81.38
18323;BME280;9287;49.456;11.064;2024-01-11T09:06:10;99310.38;;;0.55;76.33
18323;BME280;9287;49.456;11.064;2024-01-11T09:08:39;99315.22;;;1.22;71.39
18323;BME280;9287;49.456;11.064;2024-01-11T09:11:08;99320.38;;;1.76;64.19
18323;BME280;9287;49.456;11.064;2024-01-11T09:13:37;99332.38;;;2.05;62.60
18323;BME280;9287;49.456;11.064;2024-01-11T09:16:08;99336.75;;;2.32;59.36
18323;BME280;9287;49.456;11.064;2024-01-11T09:18:37;99337.22;;;2.03;60.47
18323;BME280;9287;49.456;11.064;2024-01-11T09:21:08;99343.66;;;1.97;59.88
18323;BME280;9287;49.456;11.064;2024-01-11T09:23:36;99336.47;;;2.18;60.14
18323;BME280;9287;49.456;11.064;2024-01-11T09:26:05;99331.16;;;1.76;61.77
18323;BME280;9287;49.456;11.064;2024-01-11T09:28:33;99323.59;;;1.68;61.82
18323;BME280;9287;49.456;11.064;2024-01-11T09:31:01;99336.63;;;1.44;62.77
18323;BME280;9287;49.456;11.064;2024-01-11T09:33:30;99348.16;;;1.39;64.78
18323;BME280;9287;49.456;11.064;2024-01-11T09:35:59;99356.53;;;1.06;68.95
18323;BME280;9287;49.456;11.064;2024-01-11T09:38:27;99370.09;;;1.53;65.13
18323;BME280;9287;49.456;11.064;2024-01-11T09:41:02;99372.19;;;1.88;63.77
18323;BME280;9287;49.456;11.064;2024-01-11T09:43:35;99384.03;;;1.45;65.66
18323;BME280;9287;49.456;11.064;2024-01-11T09:46:04;99381.88;;;0.08;80.46
18323;BME280;9287;49.456;11.064;2024-01-11T09:48:35;99381.03;;;-0.15;80.95
18323;BME280;9287;49.456;11.064;2024-01-11T09:51:04;99371.34;;;0.77;76.76
18323;BME280;9287;49.456;11.064;2024-01-11T09:53:38;99365.47;;;0.80;74.34
18323;BME280;9287;49.456;11.064;2024-01-11T09:56:21;99344.81;;;1.22;71.24
18323;BME280;9287;49.456;11.064;2024-01-11T09:58:50;99331.19;;;1.81;66.87
18323;BME280;9287;49.456;11.064;2024-01-11T10:01:18;99324.25;;;1.95;64.59
18323;BME280;9287;49.456;11.064;2024-01-11T10:03:48;99339.16;;;2.28;63.42
18323;BME280;9287;49.456;11.064;2024-01-11T10:06:17;99334.16;;;2.72;60.83
18323;BME280;9287;49.456;11.064;2024-01-11T10:08:45;99343.09;;;2.93;59.38
18323;BME280;9287;49.456;11.064;2024-01-11T10:11:13;99344.38;;;2.65;60.33
18323;BME280;9287;49.456;11.064;2024-01-11T10:13:41;99356.28;;;1.45;64.53
18323;BME280;9287;49.456;11.064;2024-01-11T10:16:11;99354.50;;;1.23;68.24
18323;BME280;9287;49.456;11.064;2024-01-11T10:18:40;99366.78;;;1.93;67.83
18323;BME280;9287;49.456;11.064;2024-01-11T10:21:10;99378.69;;;3.00;59.57
18323;BME280;9287;49.456;11.064;2024-01-11T10:23:38;99373.00;;;3.63;58.41
18323;BME280;9287;49.456;11.064;2024-01-11T10:26:07;99377.84;;;2.59;59.91
18323;BME280;9287;49.456;11.064;2024-01-11T10:28:35;99390.28;;;3.52;56.47
18323;BME280;9287;49.456;11.064;2024-01-11T10:31:04;99370.06;;;3.13;57.00
18323;BME280;9287;49.456;11.064;2024-01-11T10:33:34;99361.16;;;3.03;57.00
18323;BME280;9287;49.456;11.064;2024-01-11T10:36:03;99365.94;;;3.72;56.14
18323;BME280;9287;49.456;11.064;2024-01-11T10:38:36;99358.38;;;3.69;56.54
18323;BME280;9287;49.456;11.064;2024-01-11T10:41:06;99340.25;;;3.84;56.54
18323;BME280;9287;49.456;11.064;2024-01-11T10:43:37;99348.75;;;2.92;58.75
18323;BME280;9287;49.456;11.064;2024-01-11T10:46:05;99343.88;;;2.84;59.35
18323;BME280;9287;49.456;11.064;2024-01-11T10:48:37;99336.06;;;2.77;59.84
18323;BME280;9287;49.456;11.064;2024-01-11T10:51:08;99329.25;;;2.49;61.33
18323;BME280;9287;49.456;11.064;2024-01-11T10:53:44;99322.69;;;2.04;64.98
18323;BME280;9287;49.456;11.064;2024-01-11T10:56:15;99322.66;;;2.09;64.18
18323;BME280;9287;49.456;11.064;2024-01-11T10:58:44;99328.72;;;2.42;62.30
18323;BME280;9287;49.456;11.064;2024-01-11T11:01:13;99324.44;;;2.82;62.32
18323;BME280;9287;49.456;11.064;2024-01-11T11:03:43;99322.19;;;3.70;58.85
18323;BME280;9287;49.456;11.064;2024-01-11T11:06:11;99328.06;;;4.85;54.48
18323;BME280;9287;49.456;11.064;2024-01-11T11:08:42;99324.91;;;4.73;52.28
18323;BME280;9287;49.456;11.064;2024-01-11T11:11:11;99311.38;;;4.34;52.81
18323;BME280;9287;49.456;11.064;2024-01-11T11:13:40;99315.91;;;3.90;53.50
18323;BME280;9287;49.456;11.064;2024-01-11T11:16:09;99325.50;;;3.41;54.02
18323;BME280;9287;49.456;11.064;2024-01-11T11:18:37;99313.59;;;3.58;54.31
18323;BME280;9287;49.456;11.064;2024-01-11T11:21:08;99321.69;;;3.47;53.91
18323;BME280;9287;49.456;11.064;2024-01-11T11:23:37;99312.50;;;3.54;54.20
18323;BME280;9287;49.456;11.064;2024-01-11T11:26:07;99307.13;;;3.43;53.99
18323;BME280;9287;49.456;11.064;2024-01-11T11:28:41;99305.00;;;3.25;54.59
18323;BME280;9287;49.456;11.064;2024-01-11T11:31:10;99298.50;;;3.31;55.00
18323;BME280;9287;49.456;11.064;2024-01-11T11:33:40;99294.75;;;3.22;55.42
18323;BME280;9287;49.456;11.064;2024-01-11T11:36:12;99293.00;;;3.72;54.15
18323;BME280;9287;49.456;11.064;2024-01-11T11:38:40;99280.09;;;3.54;55.03
18323;BME280;9287;49.456;11.064;2024-01-11T11:41:11;99288.63;;;3.86;53.84
18323;BME280;9287;49.456;11.064;2024-01-11T11:43:39;99300.97;;;4.07;53.47
18323;BME280;9287;49.456;11.064;2024-01-11T11:46:08;99317.53;;;3.91;53.90
18323;BME280;9287;49.456;11.064;2024-01-11T11:48:57;99312.56;;;4.62;51.96
18323;BME280;9287;49.456;11.064;2024-01-11T11:51:25;99311.47;;;4.63;52.16
18323;BME280;9287;49.456;11.064;2024-01-11T11:53:55;99301.97;;;4.22;51.82
18323;BME280;9287;49.456;11.064;2024-01-11T11:56:26;99310.97;;;4.56;51.09
18323;BME280;9287;49.456;11.064;2024-01-11T11:58:56;99308.34;;;4.46;50.94
18323;BME280;9287;49.456;11.064;2024-01-11T12:01:24;99304.31;;;5.93;48.41
18323;BME280;9287;49.456;11.064;2024-01-11T12:03:53;99302.53;;;5.54;48.91
18323;BME280;9287;49.456;11.064;2024-01-11T12:06:24;99286.13;;;6.74;45.87
18323;BME280;9287;49.456;11.064;2024-01-11T12:08:55;99285.47;;;6.63;45.18
18323;BME280;9287;49.456;11.064;2024-01-11T12:11:25;99283.81;;;5.82;46.68
18323;BME280;9287;49.456;11.064;2024-01-11T12:13:54;99277.25;;;6.68;45.62
18323;BME280;9287;49.456;11.064;2024-01-11T12:16:24;99274.19;;;6.56;45.18
18323;BME280;9287;49.456;11.064;2024-01-11T12:18:52;99270.19;;;6.67;45.05
18323;BME280;9287;49.456;11.064;2024-01-11T12:21:21;99262.72;;;6.59;44.93
18323;BME280;9287;49.456;11.064;2024-01-11T12:23:49;99268.41;;;6.76;44.89
18323;BME280;9287;49.456;11.064;2024-01-11T12:26:17;99265.88;;;6.98;44.41
18323;BME280;9287;49.456;11.064;2024-01-11T12:28:51;99268.13;;;6.59;44.39
18323;BME280;9287;49.456;11.064;2024-01-11T12:31:21;99276.03;;;5.75;47.14
18323;BME280;9287;49.456;11.064;2024-01-11T12:33:50;99272.84;;;6.35;45.71
18323;BME280;9287;49.456;11.064;2024-01-11T12:36:20;99258.56;;;6.29;46.57
18323;BME280;9287;49.456;11.064;2024-01-11T12:38:48;99267.34;;;7.10;44.51
18323;BME280;9287;49.456;11.064;2024-01-11T12:41:20;99254.91;;;7.36;44.02
18323;BME280;9287;49.456;11.064;2024-01-11T12:43:50;99249.47;;;7.36;43.85
18323;BME280;9287;49.456;11.064;2024-01-11T12:46:19;99245.94;;;7.22;44.24
18323;BME280;9287;49.456;11.064;2024-01-11T12:48:50;99241.75;;;6.46;45.13
18323;BME280;9287;49.456;11.064;2024-01-11T12:51:19;99240.41;;;6.62;45.04
18323;BME280;9287;49.456;11.064;2024-01-11T12:53:52;99233.38;;;6.61;45.62
18323;BME280;9287;49.456;11.064;2024-01-11T12:56:20;99232.78;;;6.64;45.26
18323;BME280;9287;49.456;11.064;2024-01-11T12:59:05;99236.97;;;6.75;45.05
18323;BME280;9287;49.456;11.064;2024-01-11T13:01:35;99252.38;;;5.81;46.65
18323;BME280;9287;49.456;11.064;2024-01-11T13:04:03;99252.97;;;6.02;46.20
18323;BME280;9287;49.456;11.064;2024-01-11T13:06:32;99246.63;;;5.64;46.94
18323;BME280;9287;49.456;11.064;2024-01-11T13:09:01;99247.38;;;5.93;46.96
18323;BME280;9287;49.456;11.064;2024-01-11T13:11:29;99245.44;;;6.17;46.05